Return to the overview of this dataset or to the list of all FOR816 datasets.


Value filter for entity: Microclimate(id: 411) of dataset: Forest microclimate ECSF tree T38a upper canopy (z5) (dsid: 615)

Select attribute to work with:



Order by

Aggregate by date/time

on attribute:

Draw graph of subset

    x     y1     y2  
     
Ta_2m (air temperature in 2m)
Huma_2m (Air humidity 2m)
datetime (Date and Time)

Results:

page: 1 / 75 , page size: , max results: 3725

Ta_2m Huma_2m datetime
16.69 82.6 2004-01-19 21:00:00
15.95 88.8 2004-01-19 21:30:00
15.38 90.5 2004-01-19 22:00:00
14.87 91.3 2004-01-19 22:30:00
14.47 93.3 2004-01-19 23:00:00
14.01 93.7 2004-01-19 23:30:00
13.7 94.9 2004-01-20 00:00:00
13.41 96.0 2004-01-20 00:30:00
13.29 94.5 2004-01-20 01:00:00
12.98 95.6 2004-01-20 01:30:00
13.03 94.5 2004-01-20 02:00:00
12.57 97.1 2004-01-20 02:30:00
12.28 98.2 2004-01-20 03:00:00
12.04 97.8 2004-01-20 03:30:00
11.87 98.9 2004-01-20 04:00:00
11.53 98.9 2004-01-20 04:30:00
11.43 99.5 2004-01-20 05:00:00
11.21 99.9 2004-01-20 05:30:00
10.97 100.2 2004-01-20 06:00:00
10.89 100.2 2004-01-20 06:30:00
10.87 100.9 2004-01-20 07:00:00
11.09 100.5 2004-01-20 07:30:00
11.43 100.5 2004-01-20 08:00:00
12.37 98.9 2004-01-20 08:30:00
14.32 92.5 2004-01-20 09:00:00
16.14 85.3 2004-01-20 09:30:00
17.97 83.0 2004-01-20 10:00:00
20.11 75.0 2004-01-20 10:30:00
22.4 62.4 2004-01-20 11:00:00
23.63 54.6 2004-01-20 11:30:00
24.21 54.1 2004-01-20 12:00:00
22.72 61.9 2004-01-20 12:30:00
24.11 57.8 2004-01-20 13:00:00
23.53 56.2 2004-01-20 13:30:00
22.38 62.9 2004-01-20 14:00:00
22.0 76.0 2004-01-20 14:30:00
21.76 70.0 2004-01-20 15:00:00
23.82 50.5 2004-01-20 15:30:00
23.1 54.1 2004-01-20 16:00:00
21.93 58.3 2004-01-20 16:30:00
20.99 61.4 2004-01-20 17:00:00
19.97 65.0 2004-01-20 17:30:00
19.16 67.5 2004-01-20 18:00:00
18.5 69.5 2004-01-20 18:30:00
17.69 72.0 2004-01-20 19:00:00
16.95 75.0 2004-01-20 19:30:00
16.59 76.9 2004-01-20 20:00:00
15.83 83.0 2004-01-20 20:30:00
15.69 82.6 2004-01-20 21:00:00
15.28 86.2 2004-01-20 21:30:00

page: 1 / 75 , max results: 3725


Return to the overview of this dataset or to the list of all FOR816 datasets.



Quick search

  • Publications:
  • Datasets: